createdAt,value
2022-11-28T00:01:43.745Z,68.02
2022-11-28T00:06:49.460Z,67.07
2022-11-28T00:11:52.897Z,67.88
2022-11-28T00:16:57.568Z,68.21
2022-11-28T00:22:00.683Z,67.49
2022-11-28T00:27:04.011Z,68.12
2022-11-28T00:32:08.609Z,68.99
2022-11-28T00:37:12.024Z,67.98
2022-11-28T00:42:16.653Z,68.05
2022-11-28T00:47:21.328Z,69.35
2022-11-28T00:52:24.615Z,68.68
2022-11-28T00:57:28.021Z,68.52
2022-11-28T01:02:32.780Z,68.08
2022-11-28T01:07:35.926Z,69.23
2022-11-28T01:12:39.287Z,69.04
2022-11-28T01:17:43.969Z,69.01
2022-11-28T01:22:46.912Z,70.10
2022-11-28T01:27:50.226Z,69.48
2022-11-28T01:32:54.732Z,68.92
2022-11-28T01:37:57.890Z,68.59
2022-11-28T01:43:01.247Z,68.38
2022-11-28T01:48:06.343Z,69.32
2022-11-28T01:53:11.545Z,68.89
2022-11-28T01:58:15.159Z,69.31
2022-11-28T02:03:24.616Z,68.50
2022-11-28T02:08:28.043Z,68.33
2022-11-28T02:13:42.035Z,68.30
2022-11-28T02:19:29.888Z,68.04
2022-11-28T02:24:55.336Z,68.86
2022-11-28T02:30:20.139Z,68.48
2022-11-28T02:35:30.331Z,68.03
2022-11-28T02:40:39.948Z,68.81
2022-11-28T02:45:51.956Z,68.62
2022-11-28T02:51:02.710Z,69.12
2022-11-28T02:56:06.775Z,68.86
2022-11-28T03:01:17.411Z,68.60
2022-11-28T03:06:33.853Z,67.81
2022-11-28T03:11:48.972Z,69.41
2022-11-28T03:16:57.929Z,68.74
2022-11-28T03:22:11.633Z,68.43
2022-11-28T03:27:20.387Z,68.87
2022-11-28T03:32:27.959Z,68.86
2022-11-28T03:37:36.939Z,68.27
2022-11-28T03:42:43.740Z,68.45
2022-11-28T03:47:52.370Z,68.92
2022-11-28T03:53:03.157Z,69.25
2022-11-28T03:58:13.227Z,68.62
2022-11-28T04:03:27.880Z,68.14
2022-11-28T04:08:37.933Z,68.21
2022-11-28T04:13:47.025Z,68.29
2022-11-28T04:18:56.780Z,68.38
2022-11-28T04:24:05.018Z,68.42
2022-11-28T04:29:11.304Z,68.66
2022-11-28T04:34:18.601Z,67.76
2022-11-28T04:39:26.537Z,67.25
2022-11-28T04:44:35.284Z,68.19
2022-11-28T04:49:39.269Z,67.89
2022-11-28T04:54:52.918Z,67.27
2022-11-28T04:59:57.779Z,67.55
2022-11-28T05:05:01.235Z,67.66
2022-11-28T05:10:06.789Z,67.00
2022-11-28T05:15:11.380Z,67.51
2022-11-28T05:20:14.758Z,67.48
2022-11-28T05:25:19.341Z,68.00
2022-11-28T05:30:22.553Z,67.95
2022-11-28T05:35:25.826Z,67.91
2022-11-28T05:40:30.539Z,67.96
2022-11-28T05:45:33.489Z,68.78
2022-11-28T05:50:39.895Z,68.28
2022-11-28T05:55:45.406Z,67.53
2022-11-28T06:00:48.725Z,67.83
2022-11-28T06:05:52.689Z,68.10
2022-11-28T06:10:59.341Z,67.41
2022-11-28T06:16:02.536Z,67.88
2022-11-28T06:21:07.955Z,67.88
2022-11-28T06:26:15.090Z,68.12
2022-11-28T06:31:20.608Z,67.64
2022-11-28T06:36:23.862Z,67.42
2022-11-28T06:41:28.462Z,67.42
2022-11-28T06:46:34.581Z,67.66
2022-11-28T06:51:37.904Z,67.63
2022-11-28T06:56:43.460Z,67.41
2022-11-28T07:01:46.776Z,67.30
2022-11-28T07:06:50.294Z,67.43
2022-11-28T07:11:55.053Z,66.98
2022-11-28T07:17:00.084Z,67.03
2022-11-28T07:22:03.534Z,67.18
2022-11-28T07:27:08.132Z,67.25
2022-11-28T07:32:11.625Z,66.91
2022-11-28T07:37:16.263Z,66.75
2022-11-28T07:42:20.896Z,66.98
2022-11-28T07:47:24.630Z,66.73
2022-11-28T07:52:27.919Z,67.69
2022-11-28T07:57:32.656Z,67.26
2022-11-28T08:02:35.740Z,67.52
2022-11-28T08:07:39.619Z,67.08
2022-11-28T08:12:44.720Z,66.71
2022-11-28T08:17:47.891Z,67.13
2022-11-28T08:22:51.637Z,66.88
2022-11-28T08:27:56.217Z,66.32
2022-11-28T08:32:59.553Z,66.08
2022-11-28T08:38:02.680Z,66.48
2022-11-28T08:43:08.249Z,65.92
2022-11-28T08:48:11.588Z,65.72
2022-11-28T08:53:18.511Z,65.85
2022-11-28T08:58:23.499Z,65.71
2022-11-28T09:03:26.532Z,64.65
2022-11-28T09:08:30.102Z,63.88
2022-11-28T09:13:34.802Z,62.87
2022-11-28T09:18:38.268Z,62.70
2022-11-28T09:23:44.044Z,62.26
2022-11-28T09:28:49.297Z,62.34
2022-11-28T09:33:52.798Z,61.58
2022-11-28T09:38:56.092Z,61.08
2022-11-28T09:44:07.550Z,61.94
2022-11-28T09:49:40.272Z,61.52
2022-11-28T09:54:48.376Z,62.23
2022-11-28T09:59:53.102Z,63.19
2022-11-28T10:05:07.308Z,62.48
2022-11-28T10:10:24.265Z,62.94
2022-11-28T10:15:40.369Z,63.46
2022-11-28T10:20:45.931Z,64.24
2022-11-28T10:25:55.372Z,63.88
2022-11-28T10:31:05.750Z,63.95
2022-11-28T10:36:17.725Z,63.53
2022-11-28T10:41:28.996Z,63.44
2022-11-28T10:47:01.932Z,63.70
2022-11-28T10:52:14.080Z,64.05
2022-11-28T10:57:22.750Z,64.14
2022-11-28T11:02:37.694Z,63.59
2022-11-28T11:07:42.158Z,63.20
2022-11-28T11:12:46.338Z,63.32
2022-11-28T11:17:52.013Z,62.98
2022-11-28T11:22:57.060Z,62.72
2022-11-28T11:28:02.738Z,63.32
2022-11-28T11:33:13.965Z,63.04
2022-11-28T11:38:19.870Z,63.02
2022-11-28T11:43:27.773Z,63.08
2022-11-28T11:48:38.291Z,62.51
2022-11-28T11:53:41.892Z,62.45
2022-11-28T11:58:50.419Z,62.48
2022-11-28T12:04:08.393Z,62.63
2022-11-28T12:09:24.573Z,63.01
2022-11-28T12:14:31.656Z,62.08
2022-11-28T12:19:45.996Z,61.88
2022-11-28T12:25:02.983Z,62.38
2022-11-28T12:30:25.256Z,62.85
2022-11-28T12:35:39.751Z,63.49
2022-11-28T12:40:55.407Z,63.03
2022-11-28T12:46:07.146Z,62.42
2022-11-28T12:51:23.474Z,63.00
2022-11-28T12:56:38.650Z,63.57
2022-11-28T13:01:56.429Z,63.15
2022-11-28T13:07:12.680Z,63.09
2022-11-28T13:12:22.939Z,63.21
2022-11-28T13:17:39.831Z,63.28
2022-11-28T13:22:54.482Z,62.85
2022-11-28T13:28:07.342Z,63.05
2022-11-28T13:33:44.884Z,62.45
2022-11-28T13:39:11.817Z,62.36
2022-11-28T13:44:22.242Z,62.82
2022-11-28T13:49:29.700Z,63.26
2022-11-28T13:54:46.490Z,63.10
2022-11-28T13:59:58.233Z,63.24
2022-11-28T14:05:02.036Z,63.30
2022-11-28T14:10:50.972Z,63.59
2022-11-28T14:16:07.782Z,63.21
2022-11-28T14:21:20.176Z,62.67
2022-11-28T14:26:31.653Z,63.07
2022-11-28T14:31:38.396Z,63.12
2022-11-28T14:36:42.941Z,63.07
2022-11-28T14:48:16.344Z,63.25
2022-11-28T14:53:44.679Z,63.50
2022-11-28T14:58:50.585Z,64.27
2022-11-28T15:04:01.237Z,63.93
2022-11-28T15:09:08.908Z,64.21
2022-11-28T15:14:21.096Z,64.29
2022-11-28T15:19:29.314Z,63.67
2022-11-28T15:24:35.254Z,63.44
2022-11-28T15:29:39.957Z,64.57
2022-11-28T15:34:43.074Z,65.34
2022-11-28T15:39:49.263Z,64.38
2022-11-28T15:44:59.914Z,64.25
2022-11-28T15:50:06.790Z,64.41
2022-11-28T15:55:16.977Z,64.05
2022-11-28T16:00:24.427Z,63.91
2022-11-28T16:05:29.359Z,63.62
2022-11-28T16:10:37.825Z,63.69
2022-11-28T16:15:50.147Z,64.11
2022-11-28T16:20:54.319Z,64.17
2022-11-28T16:26:03.452Z,64.75
2022-11-28T16:31:14.276Z,64.97
2022-11-28T16:36:22.903Z,64.76
2022-11-28T16:41:30.709Z,65.19
2022-11-28T16:46:40.109Z,65.61
2022-11-28T16:51:43.409Z,64.93
2022-11-28T16:56:46.734Z,65.00
2022-11-28T17:01:54.965Z,65.57
2022-11-28T17:07:04.480Z,65.19
2022-11-28T17:12:12.420Z,64.87
2022-11-28T17:17:19.179Z,64.93
2022-11-28T17:22:26.561Z,65.69
2022-11-28T17:27:30.464Z,65.08
2022-11-28T17:32:35.295Z,65.52
2022-11-28T17:37:40.997Z,65.50
2022-11-28T17:42:44.543Z,65.29
2022-11-28T17:47:49.643Z,65.12
2022-11-28T17:52:53.129Z,65.16
2022-11-28T17:57:56.918Z,65.00
2022-11-28T18:03:02.669Z,64.94
2022-11-28T18:08:08.003Z,65.33
2022-11-28T18:13:11.761Z,65.27
2022-11-28T18:18:16.567Z,65.42
2022-11-28T18:23:20.037Z,65.17
2022-11-28T18:28:23.528Z,66.45
2022-11-28T18:33:28.323Z,65.98
2022-11-28T18:38:32.231Z,65.81
2022-11-28T18:43:37.075Z,65.27
2022-11-28T18:48:42.240Z,64.80
2022-11-28T18:53:46.254Z,65.82
2022-11-28T18:58:52.655Z,65.70
2022-11-28T19:04:03.494Z,65.14
2022-11-28T19:09:09.627Z,65.66
2022-11-28T19:14:16.566Z,64.97
2022-11-28T19:19:21.147Z,65.09
2022-11-28T19:24:24.226Z,64.76
2022-11-28T19:29:27.741Z,64.70
2022-11-28T19:34:33.017Z,65.01
2022-11-28T19:39:37.644Z,65.77
2022-11-28T19:44:41.096Z,65.60
2022-11-28T19:49:46.078Z,65.27
2022-11-28T19:54:49.887Z,65.49
2022-11-28T19:59:54.481Z,65.83
2022-11-28T20:04:59.022Z,66.04
2022-11-28T20:15:24.504Z,66.15
2022-11-28T20:20:29.384Z,65.52
2022-11-28T20:25:33.461Z,66.75
2022-11-28T20:30:37.352Z,66.26
2022-11-28T20:35:42.059Z,66.30
2022-11-28T20:40:45.161Z,65.84
2022-11-28T20:45:48.438Z,66.50
2022-11-28T20:50:53.029Z,66.43
2022-11-28T20:56:03.205Z,66.09
2022-11-28T21:01:07.140Z,65.96
2022-11-28T21:06:12.572Z,66.10
2022-11-28T21:11:36.642Z,66.41
2022-11-28T21:16:40.541Z,65.39
2022-11-28T21:21:45.117Z,65.40
2022-11-28T21:26:53.565Z,65.29
2022-11-28T21:31:57.774Z,65.48
2022-11-28T21:37:03.040Z,65.34
2022-11-28T21:42:06.389Z,65.68
2022-11-28T21:47:09.870Z,65.43
2022-11-28T21:52:16.080Z,65.74
2022-11-28T21:57:19.438Z,65.94
2022-11-28T22:02:27.658Z,66.45
2022-11-28T22:07:36.654Z,65.30
2022-11-28T22:12:40.040Z,65.26
2022-11-28T22:17:43.429Z,65.72
2022-11-28T22:22:49.479Z,65.55
2022-11-28T22:27:52.648Z,65.47
2022-11-28T22:32:56.149Z,65.69
2022-11-28T22:38:00.686Z,65.48
2022-11-28T22:43:04.017Z,65.41
2022-11-28T22:48:07.857Z,65.48
2022-11-28T22:53:12.417Z,65.90
2022-11-28T22:58:15.735Z,66.33
2022-11-28T23:03:18.985Z,65.83
2022-11-28T23:08:23.730Z,65.76
2022-11-28T23:13:26.892Z,65.35
2022-11-28T23:18:30.110Z,65.39
2022-11-28T23:23:35.118Z,65.11
2022-11-28T23:28:39.744Z,64.94
2022-11-28T23:33:43.953Z,65.25
2022-11-28T23:38:50.567Z,65.07
2022-11-28T23:43:54.171Z,65.09
2022-11-28T23:48:57.855Z,65.09
2022-11-28T23:54:02.457Z,65.33
2022-11-28T23:59:24.652Z,65.19
